createdAt,value
2018-07-28T00:02:04.884Z,8.17
2018-07-28T00:04:33.192Z,9.18
2018-07-28T00:07:01.526Z,7.17
2018-07-28T00:09:29.891Z,8.00
2018-07-28T00:11:58.202Z,9.30
2018-07-28T00:14:26.531Z,6.92
2018-07-28T00:16:54.910Z,7.85
2018-07-28T00:19:23.163Z,7.08
2018-07-28T00:21:51.514Z,7.40
2018-07-28T00:24:19.898Z,7.70
2018-07-28T00:26:48.222Z,6.95
2018-07-28T00:29:16.498Z,7.80
2018-07-28T00:31:44.901Z,9.98
2018-07-28T00:34:14.753Z,8.83
2018-07-28T00:36:43.041Z,7.42
2018-07-28T00:39:13.607Z,9.18
2018-07-28T00:41:42.063Z,7.70
2018-07-28T00:44:10.347Z,6.85
2018-07-28T00:46:38.401Z,7.58
2018-07-28T00:49:07.310Z,7.30
2018-07-28T00:51:35.933Z,9.73
2018-07-28T00:54:04.313Z,7.80
2018-07-28T00:56:32.911Z,8.10
2018-07-28T00:59:01.234Z,7.65
2018-07-28T01:01:29.710Z,7.65
2018-07-28T01:03:58.053Z,7.62
2018-07-28T01:06:26.382Z,7.75
2018-07-28T01:08:54.738Z,7.53
2018-07-28T01:11:22.763Z,7.67
2018-07-28T01:13:51.422Z,7.67
2018-07-28T01:16:19.761Z,7.28
2018-07-28T01:18:48.061Z,7.72
2018-07-28T01:21:16.134Z,7.47
2018-07-28T01:23:44.486Z,8.03
2018-07-28T01:26:12.863Z,7.90
2018-07-28T01:28:41.180Z,7.05
2018-07-28T01:31:09.531Z,8.30
2018-07-28T01:33:37.856Z,8.23
2018-07-28T01:36:06.239Z,10.23
2018-07-28T01:38:34.620Z,8.83
2018-07-28T01:41:02.946Z,7.55
2018-07-28T01:43:31.240Z,7.97
2018-07-28T01:45:59.604Z,9.83
2018-07-28T01:48:27.901Z,7.75
2018-07-28T01:50:56.256Z,7.67
2018-07-28T01:53:24.578Z,8.18
2018-07-28T01:55:52.894Z,8.25
2018-07-28T01:58:21.178Z,8.50
2018-07-28T02:00:49.566Z,8.10
2018-07-28T02:03:17.828Z,7.62
2018-07-28T02:05:46.127Z,8.50
2018-07-28T02:08:14.488Z,8.55
2018-07-28T02:10:42.830Z,8.15
2018-07-28T02:13:11.118Z,9.48
2018-07-28T02:15:39.489Z,8.95
2018-07-28T02:18:07.797Z,8.73
2018-07-28T02:20:36.093Z,8.93
2018-07-28T02:23:04.466Z,9.50
2018-07-28T02:25:32.766Z,9.50
2018-07-28T02:28:01.073Z,8.48
2018-07-28T02:30:29.434Z,8.68
2018-07-28T02:32:57.770Z,7.90
2018-07-28T02:35:26.071Z,8.40
2018-07-28T02:37:54.415Z,8.78
2018-07-28T02:40:22.706Z,8.63
2018-07-28T02:42:51.012Z,8.73
2018-07-28T02:45:19.135Z,8.40
2018-07-28T02:47:47.403Z,8.78
2018-07-28T02:50:15.718Z,10.87
2018-07-28T02:52:44.034Z,8.60
2018-07-28T02:55:12.376Z,8.65
2018-07-28T02:57:40.698Z,8.88
2018-07-28T03:00:09.506Z,8.55
2018-07-28T03:02:37.911Z,8.73
2018-07-28T03:05:07.044Z,8.00
2018-07-28T03:07:35.112Z,10.30
2018-07-28T03:10:03.489Z,8.50
2018-07-28T03:12:31.816Z,9.15
2018-07-28T03:15:00.179Z,8.73
2018-07-28T03:17:28.559Z,8.68
2018-07-28T03:19:56.847Z,8.93
2018-07-28T03:22:25.214Z,8.63
2018-07-28T03:24:53.569Z,9.05
2018-07-28T03:27:26.979Z,9.30
2018-07-28T03:29:55.321Z,8.58
2018-07-28T03:32:23.620Z,8.80
2018-07-28T03:34:51.905Z,8.68
2018-07-28T03:37:20.264Z,8.40
2018-07-28T03:39:48.554Z,9.10
2018-07-28T03:42:16.893Z,8.40
2018-07-28T03:44:45.257Z,8.95
2018-07-28T03:47:13.553Z,8.50
2018-07-28T03:49:41.844Z,8.80
2018-07-28T03:52:10.193Z,9.53
2018-07-28T03:54:38.514Z,8.95
2018-07-28T03:57:06.877Z,9.40
2018-07-28T03:59:35.203Z,8.70
2018-07-28T04:02:03.531Z,8.73
2018-07-28T04:04:31.559Z,9.10
2018-07-28T04:06:59.923Z,8.85
2018-07-28T04:09:28.227Z,8.50
2018-07-28T04:11:56.591Z,9.30
2018-07-28T04:14:24.999Z,8.25
2018-07-28T04:16:53.281Z,9.05
2018-07-28T04:19:21.585Z,13.38
2018-07-28T04:21:49.949Z,8.63
2018-07-28T04:24:18.265Z,8.33
2018-07-28T04:26:46.584Z,8.88
2018-07-28T04:29:14.936Z,9.70
2018-07-28T04:31:43.252Z,9.60
2018-07-28T04:34:11.566Z,8.63
2018-07-28T04:36:39.940Z,8.98
2018-07-28T04:39:09.637Z,8.65
2018-07-28T04:41:38.651Z,9.63
2018-07-28T04:44:07.145Z,8.45
2018-07-28T04:46:35.693Z,9.48
2018-07-28T04:49:03.952Z,8.90
2018-07-28T04:51:32.341Z,8.40
2018-07-28T04:54:00.629Z,9.30
2018-07-28T04:56:28.932Z,8.90
2018-07-28T04:58:57.373Z,8.58
2018-07-28T05:01:25.709Z,9.63
2018-07-28T05:03:54.009Z,9.15
2018-07-28T05:06:22.342Z,9.35
2018-07-28T05:08:50.712Z,9.37
2018-07-28T05:11:19.048Z,16.77
2018-07-28T05:13:47.421Z,8.90
2018-07-28T05:16:15.792Z,8.58
2018-07-28T05:18:44.598Z,10.28
2018-07-28T05:21:13.401Z,12.07
2018-07-28T05:23:41.484Z,9.28
2018-07-28T05:26:09.799Z,8.40
2018-07-28T05:28:38.193Z,9.88
2018-07-28T05:31:06.685Z,13.13
2018-07-28T05:33:35.014Z,8.40
2018-07-28T05:36:03.340Z,9.20
2018-07-28T05:38:31.688Z,8.65
2018-07-28T05:41:00.021Z,8.55
2018-07-28T05:43:28.377Z,9.23
2018-07-28T05:45:56.775Z,9.13
2018-07-28T05:48:25.103Z,9.53
2018-07-28T05:50:53.509Z,8.35
2018-07-28T05:53:21.809Z,9.15
2018-07-28T05:55:50.153Z,8.08
2018-07-28T05:58:18.505Z,7.75
2018-07-28T06:00:46.841Z,8.75
2018-07-28T06:03:15.181Z,9.03
2018-07-28T06:05:43.480Z,7.92
2018-07-28T06:08:11.837Z,8.03
2018-07-28T06:10:40.120Z,8.63
2018-07-28T06:13:08.460Z,9.43
2018-07-28T06:15:36.771Z,8.53
2018-07-28T06:18:05.245Z,9.63
2018-07-28T06:20:33.589Z,9.53
2018-07-28T06:23:01.649Z,8.60
2018-07-28T06:25:29.984Z,8.23
2018-07-28T06:27:58.359Z,13.83
2018-07-28T06:30:26.684Z,9.53
2018-07-28T06:32:54.807Z,9.08
2018-07-28T06:35:23.165Z,9.10
2018-07-28T06:37:51.501Z,10.38
2018-07-28T06:40:19.826Z,8.63
2018-07-28T06:42:48.152Z,7.87
2018-07-28T06:45:16.453Z,8.15
2018-07-28T06:47:44.737Z,8.45
2018-07-28T06:50:13.108Z,11.07
2018-07-28T06:52:41.449Z,8.83
2018-07-28T06:55:09.759Z,8.93
2018-07-28T06:57:38.114Z,8.38
2018-07-28T07:00:08.256Z,19.22
2018-07-28T07:02:36.670Z,8.48
2018-07-28T07:05:06.215Z,7.50
2018-07-28T07:07:34.582Z,7.87
2018-07-28T07:10:04.764Z,8.08
2018-07-28T07:12:33.173Z,10.20
2018-07-28T07:15:01.496Z,7.87
2018-07-28T07:17:29.838Z,7.33
2018-07-28T07:19:58.160Z,7.20
2018-07-28T07:22:26.484Z,8.58
2018-07-28T07:24:54.860Z,9.45
2018-07-28T07:27:23.201Z,7.95
2018-07-28T07:29:51.544Z,8.35
2018-07-28T07:32:19.888Z,7.87
2018-07-28T07:34:48.257Z,8.25
2018-07-28T07:37:16.614Z,7.87
2018-07-28T07:39:47.038Z,7.65
2018-07-28T07:42:15.627Z,8.53
2018-07-28T07:44:43.923Z,8.63
2018-07-28T07:47:12.319Z,7.83
2018-07-28T07:49:40.629Z,8.08
2018-07-28T07:52:08.994Z,8.80
2018-07-28T07:54:37.797Z,8.60
2018-07-28T07:57:06.785Z,8.28
2018-07-28T07:59:35.217Z,8.53
2018-07-28T08:02:04.076Z,8.90
2018-07-28T08:04:32.451Z,7.83
2018-07-28T08:07:00.853Z,7.78
2018-07-28T08:09:29.170Z,7.90
2018-07-28T08:12:15.476Z,8.97
2018-07-28T08:14:43.837Z,8.50
2018-07-28T08:17:12.182Z,7.97
2018-07-28T08:19:40.514Z,7.80
2018-07-28T08:22:08.933Z,8.05
2018-07-28T08:24:37.297Z,9.45
2018-07-28T08:27:05.659Z,8.78
2018-07-28T08:29:33.989Z,8.03
2018-07-28T08:32:02.304Z,8.50
2018-07-28T08:34:30.681Z,9.33
2018-07-28T08:36:59.432Z,7.78
2018-07-28T08:39:27.832Z,8.18
2018-07-28T08:41:57.006Z,8.28
2018-07-28T08:44:25.362Z,9.05
2018-07-28T08:46:54.137Z,9.40
2018-07-28T08:49:22.620Z,8.55
2018-07-28T08:51:51.021Z,7.78
2018-07-28T08:57:47.460Z,9.28
2018-07-28T09:00:15.867Z,9.17
2018-07-28T09:02:44.282Z,12.03
2018-07-28T09:05:12.720Z,9.73
2018-07-28T09:07:41.861Z,9.60
2018-07-28T09:10:10.674Z,10.08
2018-07-28T09:12:39.011Z,10.40
2018-07-28T09:15:08.298Z,9.05
2018-07-28T09:17:36.612Z,9.13
2018-07-28T09:20:05.161Z,9.65
2018-07-28T09:22:33.561Z,10.75
2018-07-28T09:25:01.842Z,9.65
2018-07-28T09:27:30.266Z,10.83
2018-07-28T09:29:58.759Z,10.72
2018-07-28T09:32:27.107Z,12.13
2018-07-28T09:34:55.497Z,10.32
2018-07-28T09:37:23.880Z,9.00
2018-07-28T09:39:52.229Z,9.98
2018-07-28T09:42:20.597Z,9.18
2018-07-28T09:44:48.911Z,9.53
2018-07-28T09:47:17.280Z,9.95
2018-07-28T09:49:45.692Z,10.90
2018-07-28T09:52:14.086Z,13.32
2018-07-28T09:54:42.443Z,11.25
2018-07-28T09:57:10.856Z,10.98
2018-07-28T09:59:39.162Z,11.53
2018-07-28T10:02:07.852Z,12.28
2018-07-28T10:04:36.181Z,12.07
2018-07-28T10:07:04.632Z,12.28
2018-07-28T10:09:32.999Z,11.90
2018-07-28T10:12:01.434Z,12.23
2018-07-28T10:14:29.820Z,11.75
2018-07-28T10:16:58.160Z,11.25
2018-07-28T10:19:26.571Z,11.35
2018-07-28T10:21:54.924Z,11.03
2018-07-28T10:24:23.226Z,10.63
2018-07-28T10:26:51.664Z,14.25
2018-07-28T10:29:20.027Z,10.32
2018-07-28T10:31:48.408Z,11.10
2018-07-28T10:34:16.769Z,10.03
2018-07-28T10:36:45.142Z,10.20
2018-07-28T10:39:14.503Z,9.68
2018-07-28T10:41:42.995Z,9.78
2018-07-28T10:44:11.354Z,9.48
2018-07-28T10:46:39.727Z,9.58
2018-07-28T10:49:08.111Z,8.95
2018-07-28T10:51:36.487Z,7.20
2018-07-28T10:54:04.913Z,9.05
2018-07-28T10:56:33.357Z,8.85
2018-07-28T10:59:01.718Z,10.55
2018-07-28T11:01:30.270Z,5.78
2018-07-28T11:03:58.734Z,6.47
2018-07-28T11:06:27.473Z,5.83
2018-07-28T11:08:57.442Z,8.98
2018-07-28T11:11:25.826Z,5.70
2018-07-28T11:14:16.694Z,5.70
2018-07-28T11:17:53.276Z,5.55
2018-07-28T11:20:26.934Z,5.93
2018-07-28T11:25:53.204Z,5.58
2018-07-28T11:28:21.809Z,6.42
2018-07-28T11:30:50.477Z,4.90
2018-07-28T11:34:28.089Z,5.35
2018-07-28T12:44:18.598Z,4.70
2018-07-28T12:46:48.161Z,5.70
2018-07-28T12:49:16.872Z,4.25
2018-07-28T13:13:20.364Z,5.45
2018-07-28T13:15:48.765Z,5.90
2018-07-28T13:18:17.135Z,5.35
2018-07-28T13:20:45.678Z,5.42
2018-07-28T13:23:19.968Z,4.67
2018-07-28T13:25:48.262Z,4.80
2018-07-28T13:28:16.711Z,5.05
2018-07-28T13:31:11.743Z,4.50
2018-07-28T13:33:41.560Z,6.83
2018-07-28T13:36:12.706Z,3.80
2018-07-28T13:38:42.512Z,4.05
2018-07-28T13:41:10.946Z,4.87
2018-07-28T13:43:39.448Z,4.87
2018-07-28T13:46:08.012Z,4.50
2018-07-28T13:48:36.557Z,4.70
2018-07-28T13:51:04.970Z,5.35
2018-07-28T13:53:33.492Z,5.62
2018-07-28T13:56:02.019Z,6.40
2018-07-28T13:58:32.284Z,5.55
2018-07-28T14:01:21.695Z,6.60
2018-07-28T14:03:52.436Z,6.67
2018-07-28T14:06:24.041Z,6.97
2018-07-28T14:08:53.190Z,7.58
2018-07-28T14:11:21.634Z,7.47
2018-07-28T14:13:50.100Z,8.00
2018-07-28T14:16:21.267Z,6.80
2018-07-28T14:18:49.738Z,5.72
2018-07-28T14:21:18.381Z,5.95
2018-07-28T14:23:51.231Z,5.72
2018-07-28T14:26:23.288Z,6.17
2018-07-28T14:28:51.743Z,5.97
2018-07-28T14:31:32.030Z,6.95
2018-07-28T14:34:10.803Z,5.90
2018-07-28T14:36:41.302Z,6.53
2018-07-28T14:39:14.881Z,6.15
2018-07-28T14:41:48.491Z,6.37
2018-07-28T14:44:17.774Z,5.45
2018-07-28T14:46:56.583Z,5.50
2018-07-28T14:49:25.101Z,5.55
2018-07-28T14:51:54.647Z,5.20
2018-07-28T14:54:42.790Z,5.50
2018-07-28T14:57:12.284Z,5.67
2018-07-28T14:59:47.189Z,5.87
2018-07-28T15:02:20.693Z,6.53
2018-07-28T15:04:50.177Z,5.97
2018-07-28T15:07:19.527Z,6.30
2018-07-28T15:09:48.013Z,5.97
2018-07-28T15:12:16.409Z,5.83
2018-07-28T15:14:44.812Z,5.90
2018-07-28T15:17:13.329Z,5.50
2018-07-28T15:19:43.012Z,18.82
2018-07-28T15:22:11.405Z,15.85
2018-07-28T15:24:39.862Z,28.30
2018-07-28T15:27:13.343Z,0.78
2018-07-28T15:29:42.975Z,0.30
2018-07-28T15:32:30.855Z,0.30
2018-07-28T15:35:12.704Z,0.23
2018-07-28T15:38:00.096Z,1.85
2018-07-28T15:40:29.450Z,0.20
2018-07-28T15:43:43.635Z,0.50
2018-07-28T16:24:49.973Z,0.20
2018-07-28T16:27:39.148Z,1.20
2018-07-28T16:30:09.207Z,0.42
2018-07-28T16:32:37.604Z,0.98
2018-07-28T16:35:06.538Z,0.20
2018-07-28T16:37:46.426Z,0.53
2018-07-28T16:40:15.030Z,0.70
2018-07-28T16:42:57.878Z,0.53
2018-07-28T16:45:26.305Z,0.20
2018-07-28T16:48:07.207Z,0.68
2018-07-28T16:50:41.088Z,0.20
2018-07-28T16:53:11.200Z,0.20
2018-07-28T16:55:39.881Z,0.25
2018-07-28T16:58:09.936Z,0.35
2018-07-28T17:00:38.431Z,0.30
2018-07-28T17:03:07.656Z,0.20
2018-07-28T17:05:37.488Z,0.20
2018-07-28T17:08:05.920Z,0.70
2018-07-28T17:10:34.368Z,0.23
2018-07-28T17:13:02.975Z,0.60
2018-07-28T17:15:32.189Z,0.30
2018-07-28T17:18:00.526Z,0.40
2018-07-28T17:20:29.707Z,0.88
2018-07-28T17:22:58.122Z,0.30
2018-07-28T17:25:26.553Z,0.40
2018-07-28T17:27:55.062Z,0.20
2018-07-28T17:30:23.611Z,0.67
2018-07-28T17:32:51.963Z,0.20
2018-07-28T17:35:20.349Z,0.50
2018-07-28T17:37:48.745Z,0.20
2018-07-28T17:40:17.205Z,0.50
2018-07-28T17:42:45.700Z,2.58
2018-07-28T17:45:14.053Z,0.60
2018-07-28T17:47:42.425Z,0.33
2018-07-28T17:50:13.299Z,0.68
2018-07-28T17:52:41.695Z,0.53
2018-07-28T17:55:10.319Z,0.40
2018-07-28T17:57:38.830Z,0.90
2018-07-28T18:00:08.321Z,0.65
2018-07-28T18:02:36.733Z,0.30
2018-07-28T18:05:05.680Z,1.45
2018-07-28T18:07:34.217Z,0.42
2018-07-28T18:10:02.571Z,0.62
2018-07-28T18:12:30.948Z,3.15
2018-07-28T18:14:59.296Z,0.40
2018-07-28T18:17:27.744Z,0.42
2018-07-28T18:19:56.170Z,0.60
2018-07-28T18:22:24.588Z,0.30
2018-07-28T18:24:53.427Z,0.57
2018-07-28T18:27:21.913Z,0.70
2018-07-28T18:29:50.262Z,1.65
2018-07-28T18:32:21.655Z,0.65
2018-07-28T18:34:50.415Z,0.50
2018-07-28T18:37:18.815Z,0.28
2018-07-28T18:39:47.666Z,0.40
2018-07-28T18:42:16.025Z,0.50
2018-07-28T18:44:44.432Z,0.40
2018-07-28T18:47:13.137Z,13.65
2018-07-28T18:49:41.602Z,0.60
2018-07-28T18:52:11.220Z,0.62
2018-07-28T18:54:40.860Z,0.23
2018-07-28T18:57:10.035Z,0.30
2018-07-28T18:59:38.211Z,0.35
2018-07-28T19:02:06.708Z,0.47
2018-07-28T19:04:35.298Z,24.85
2018-07-28T19:07:10.874Z,0.20
2018-07-28T19:09:52.129Z,0.80
2018-07-28T19:12:42.608Z,1.42
2018-07-28T19:15:11.098Z,0.20
2018-07-28T19:17:57.514Z,0.15
2018-07-28T19:20:25.928Z,1.75
2018-07-28T19:23:14.812Z,0.50
2018-07-28T19:25:43.208Z,0.15
2018-07-28T19:28:29.342Z,0.33
2018-07-28T19:30:57.815Z,0.30
2018-07-28T19:33:26.189Z,0.65
2018-07-28T19:36:12.653Z,0.20
2018-07-28T19:38:41.869Z,0.30
2018-07-28T19:41:10.543Z,0.85
2018-07-28T19:43:41.275Z,0.20
2018-07-28T19:46:10.018Z,0.25
2018-07-28T19:48:38.383Z,0.40
2018-07-28T19:51:07.260Z,0.37
2018-07-28T19:53:35.643Z,0.20
2018-07-28T19:56:04.070Z,0.28
2018-07-28T19:58:32.498Z,0.20
2018-07-28T20:01:00.932Z,0.30
2018-07-28T20:03:32.097Z,0.72
2018-07-28T20:06:03.533Z,0.20
2018-07-28T20:08:33.470Z,0.10
2018-07-28T20:11:02.246Z,0.50
2018-07-28T20:13:30.771Z,0.10
2018-07-28T20:15:59.695Z,0.47
2018-07-28T20:18:28.164Z,0.20
2018-07-28T20:20:56.638Z,0.30
2018-07-28T20:23:25.007Z,0.20
2018-07-28T20:25:53.606Z,0.33
2018-07-28T20:28:22.151Z,1.60
2018-07-28T20:30:56.042Z,0.20
2018-07-28T20:33:24.471Z,0.20
2018-07-28T20:35:52.898Z,0.30
2018-07-28T20:38:21.705Z,0.23
2018-07-28T20:40:50.364Z,0.57
2018-07-28T20:43:18.782Z,0.50
2018-07-28T20:45:47.155Z,0.20
2018-07-28T20:48:15.660Z,0.10
2018-07-28T20:50:44.176Z,0.30
2018-07-28T20:53:12.546Z,0.20
2018-07-28T20:55:41.419Z,0.57
2018-07-28T20:58:11.323Z,0.10
2018-07-28T21:00:39.735Z,0.30
2018-07-28T21:03:08.198Z,0.10
2018-07-28T21:05:36.720Z,0.10
2018-07-28T21:08:05.221Z,0.20
2018-07-28T21:10:33.630Z,0.50
2018-07-28T21:13:03.319Z,0.20
2018-07-28T21:15:31.477Z,0.10
2018-07-28T21:17:59.859Z,0.10
2018-07-28T21:20:28.276Z,0.10
2018-07-28T21:22:56.708Z,0.10
2018-07-28T21:25:25.061Z,0.50
2018-07-28T21:27:53.491Z,0.30
2018-07-28T21:30:21.866Z,0.10
2018-07-28T21:32:51.521Z,0.10
2018-07-28T21:35:19.995Z,0.10
2018-07-28T21:37:48.446Z,0.45
2018-07-28T21:40:16.846Z,0.10
2018-07-28T21:42:45.299Z,0.10
2018-07-28T21:45:13.708Z,0.30
2018-07-28T21:47:42.103Z,0.10
2018-07-28T21:50:10.549Z,0.50
2018-07-28T21:52:38.938Z,0.10
2018-07-28T21:55:07.275Z,0.40
2018-07-28T21:57:35.740Z,0.10
2018-07-28T22:00:05.913Z,0.60
2018-07-28T22:02:34.331Z,1.85
2018-07-28T22:05:02.918Z,0.20
2018-07-28T22:07:31.557Z,0.20
2018-07-28T22:09:59.901Z,0.47
2018-07-28T22:12:28.615Z,0.20
2018-07-28T22:14:57.026Z,0.10
2018-07-28T22:17:25.451Z,0.10
2018-07-28T22:19:53.946Z,0.13
2018-07-28T22:22:22.266Z,0.30
2018-07-28T22:24:50.657Z,0.10
2018-07-28T22:27:19.302Z,0.53
2018-07-28T22:29:47.688Z,0.10
2018-07-28T22:32:16.109Z,0.10
2018-07-28T22:34:44.484Z,0.20
2018-07-28T22:37:12.912Z,0.10
2018-07-28T22:39:41.267Z,0.15
2018-07-28T22:42:09.794Z,0.30
2018-07-28T22:44:38.341Z,0.93
2018-07-28T22:47:06.922Z,0.10
2018-07-28T22:49:35.401Z,0.10
2018-07-28T22:52:03.788Z,0.73
2018-07-28T22:54:33.648Z,0.80
2018-07-28T22:57:02.086Z,0.10
2018-07-28T22:59:30.502Z,0.40
2018-07-28T23:01:58.853Z,0.10
2018-07-28T23:04:27.000Z,0.10
2018-07-28T23:06:55.372Z,0.33
2018-07-28T23:09:23.684Z,0.10
2018-07-28T23:11:52.179Z,1.50
2018-07-28T23:14:20.842Z,0.10
2018-07-28T23:16:49.251Z,0.10
2018-07-28T23:19:17.635Z,0.10
2018-07-28T23:21:46.109Z,0.10
2018-07-28T23:24:14.559Z,0.17
2018-07-28T23:26:43.096Z,0.10
2018-07-28T23:29:11.450Z,0.10
2018-07-28T23:31:39.825Z,0.10
2018-07-28T23:34:08.259Z,0.10
2018-07-28T23:36:36.633Z,0.10
2018-07-28T23:39:06.952Z,0.20
2018-07-28T23:41:35.388Z,0.10
2018-07-28T23:44:03.716Z,0.10
2018-07-28T23:46:32.154Z,0.10
2018-07-28T23:49:00.626Z,0.10
2018-07-28T23:51:28.991Z,0.10
2018-07-28T23:53:58.763Z,0.20
2018-07-28T23:56:27.423Z,0.10
2018-07-28T23:58:56.177Z,0.10
